createdAt,value
2023-02-13T00:00:00.000Z,36.76
2023-02-13T00:15:00.000Z,34.75
2023-02-13T00:30:00.000Z,35.47
2023-02-13T00:45:00.000Z,35.49
2023-02-13T01:00:00.000Z,36.01
2023-02-13T01:15:00.000Z,35.73
2023-02-13T01:30:00.000Z,35.84
2023-02-13T01:45:00.000Z,35.14
2023-02-13T02:00:00.000Z,33.96
2023-02-13T02:15:00.000Z,35.26
2023-02-13T02:30:00.000Z,36
2023-02-13T02:45:00.000Z,32.95
2023-02-13T03:00:00.000Z,31.27
2023-02-13T03:15:00.000Z,33.47
2023-02-13T03:30:00.000Z,33.13
2023-02-13T03:45:00.000Z,37.05
2023-02-13T04:00:00.000Z,38.04
2023-02-13T04:15:00.000Z,39.87
2023-02-13T04:30:00.000Z,37.84
2023-02-13T04:45:00.000Z,34.04
2023-02-13T05:00:00.000Z,34.26
2023-02-13T05:15:00.000Z,35.06
2023-02-13T05:30:00.000Z,35.42
2023-02-13T05:45:00.000Z,31.27
2023-02-13T06:00:00.000Z,30.05
2023-02-13T06:15:00.000Z,31.56
2023-02-13T06:30:00.000Z,32.45
2023-02-13T06:45:00.000Z,33.89
2023-02-13T07:00:00.000Z,33.46
2023-02-13T07:15:00.000Z,34.58
2023-02-13T07:30:00.000Z,34.46
2023-02-13T07:45:00.000Z,37.79
2023-02-13T08:00:00.000Z,35.62
2023-02-13T08:15:00.000Z,33.36
2023-02-13T08:30:00.000Z,35.93
2023-02-13T08:45:00.000Z,42.44
2023-02-13T09:00:00.000Z,37.91
2023-02-13T09:15:00.000Z,34.38
2023-02-13T09:30:00.000Z,40.99
2023-02-13T09:45:00.000Z,42.62
2023-02-13T10:00:00.000Z,50.18
2023-02-13T10:15:00.000Z,53.54
2023-02-13T10:30:00.000Z,56.41
2023-02-13T10:45:00.000Z,56.78
2023-02-13T11:00:00.000Z,57.84
2023-02-13T11:15:00.000Z,48.39
2023-02-13T11:30:00.000Z,52.22
2023-02-13T11:45:00.000Z,44.71
2023-02-13T12:00:00.000Z,37.67
2023-02-13T12:15:00.000Z,33.41
2023-02-13T12:30:00.000Z,33.08
2023-02-13T12:45:00.000Z,31.06
2023-02-13T13:00:00.000Z,32.68
2023-02-13T13:15:00.000Z,32.33
2023-02-13T13:30:00.000Z,32.47
2023-02-13T13:45:00.000Z,32.58
2023-02-13T14:00:00.000Z,41.37
2023-02-13T14:15:00.000Z,55.19
2023-02-13T14:30:00.000Z,39.02
2023-02-13T14:45:00.000Z,38.16
2023-02-13T15:00:00.000Z,36.46
2023-02-13T15:15:00.000Z,37.22
2023-02-13T15:30:00.000Z,36.2
2023-02-13T15:45:00.000Z,38.74
2023-02-13T16:00:00.000Z,38.94
2023-02-13T16:15:00.000Z,39.87
2023-02-13T16:30:00.000Z,42.59
2023-02-13T16:45:00.000Z,43.76
2023-02-13T17:00:00.000Z,45.11
2023-02-13T17:15:00.000Z,44.94
2023-02-13T17:30:00.000Z,48.76
2023-02-13T17:45:00.000Z,53.86
2023-02-13T18:00:00.000Z,52.12
2023-02-13T18:15:00.000Z,56.58
2023-02-13T18:30:00.000Z,65.04
2023-02-13T18:45:00.000Z,64.42
2023-02-13T19:00:00.000Z,66.04
2023-02-13T19:15:00.000Z,61.28
2023-02-13T19:30:00.000Z,56.66
2023-02-13T19:45:00.000Z,56.26
2023-02-13T20:00:00.000Z,58.59
2023-02-13T20:15:00.000Z,68.36
2023-02-13T20:30:00.000Z,76.18
2023-02-13T20:45:00.000Z,62.39
2023-02-13T21:00:00.000Z,61.35
2023-02-13T21:15:00.000Z,60.15
2023-02-13T21:30:00.000Z,55.27
2023-02-13T21:45:00.000Z,52.14
2023-02-13T22:00:00.000Z,52.26
2023-02-13T22:15:00.000Z,54.09
2023-02-13T22:30:00.000Z,54.01
2023-02-13T22:45:00.000Z,55.11
2023-02-13T23:00:00.000Z,54.09
2023-02-13T23:15:00.000Z,53.81
2023-02-13T23:30:00.000Z,53.11
2023-02-13T23:45:00.000Z,51.56
